sensor_id;sensor_type;location;lat;lon;timestamp;P1;durP1;ratioP1;P2;durP2;ratioP2
52964;SDS011;42923;53.220;6.528;2023-02-15T00:00:22;96.63;;;47.33;;
52964;SDS011;42923;53.220;6.528;2023-02-15T00:02:48;87.72;;;45.10;;
52964;SDS011;42923;53.220;6.528;2023-02-15T00:05:13;92.00;;;44.95;;
52964;SDS011;42923;53.220;6.528;2023-02-15T00:07:39;71.75;;;41.55;;
52964;SDS011;42923;53.220;6.528;2023-02-15T00:10:05;87.25;;;41.85;;
52964;SDS011;42923;53.220;6.528;2023-02-15T00:12:32;80.75;;;39.95;;
52964;SDS011;42923;53.220;6.528;2023-02-15T00:14:57;93.30;;;43.15;;
52964;SDS011;42923;53.220;6.528;2023-02-15T00:17:23;82.10;;;40.47;;
52964;SDS011;42923;53.220;6.528;2023-02-15T00:19:49;86.38;;;44.55;;
52964;SDS011;42923;53.220;6.528;2023-02-15T00:22:15;86.10;;;45.03;;
52964;SDS011;42923;53.220;6.528;2023-02-15T00:24:40;86.70;;;44.05;;
52964;SDS011;42923;53.220;6.528;2023-02-15T00:27:06;81.70;;;43.08;;
52964;SDS011;42923;53.220;6.528;2023-02-15T00:29:32;94.43;;;43.65;;
52964;SDS011;42923;53.220;6.528;2023-02-15T00:31:57;98.40;;;45.38;;
52964;SDS011;42923;53.220;6.528;2023-02-15T00:34:24;84.70;;;43.85;;
52964;SDS011;42923;53.220;6.528;2023-02-15T00:36:51;110.35;;;46.85;;
52964;SDS011;42923;53.220;6.528;2023-02-15T00:39:17;96.40;;;47.55;;
52964;SDS011;42923;53.220;6.528;2023-02-15T00:41:44;101.18;;;46.75;;
52964;SDS011;42923;53.220;6.528;2023-02-15T00:44:10;94.18;;;44.58;;
52964;SDS011;42923;53.220;6.528;2023-02-15T00:46:37;87.93;;;43.95;;
52964;SDS011;42923;53.220;6.528;2023-02-15T00:49:03;102.03;;;46.08;;
52964;SDS011;42923;53.220;6.528;2023-02-15T00:51:29;102.38;;;46.90;;
52964;SDS011;42923;53.220;6.528;2023-02-15T00:53:56;83.57;;;41.15;;
52964;SDS011;42923;53.220;6.528;2023-02-15T00:56:21;81.88;;;41.75;;
52964;SDS011;42923;53.220;6.528;2023-02-15T00:58:47;87.38;;;42.60;;
52964;SDS011;42923;53.220;6.528;2023-02-15T01:01:14;83.15;;;44.22;;
52964;SDS011;42923;53.220;6.528;2023-02-15T01:03:43;83.40;;;45.10;;
52964;SDS011;42923;53.220;6.528;2023-02-15T01:06:11;95.57;;;47.85;;
52964;SDS011;42923;53.220;6.528;2023-02-15T01:08:37;106.82;;;52.88;;
52964;SDS011;42923;53.220;6.528;2023-02-15T01:11:07;109.25;;;50.90;;
52964;SDS011;42923;53.220;6.528;2023-02-15T01:13:34;107.13;;;52.25;;
52964;SDS011;42923;53.220;6.528;2023-02-15T01:16:00;105.78;;;49.97;;
52964;SDS011;42923;53.220;6.528;2023-02-15T01:18:27;116.20;;;54.33;;
52964;SDS011;42923;53.220;6.528;2023-02-15T01:20:52;128.85;;;56.15;;
52964;SDS011;42923;53.220;6.528;2023-02-15T01:23:18;103.30;;;50.50;;
52964;SDS011;42923;53.220;6.528;2023-02-15T01:25:45;135.02;;;54.47;;
52964;SDS011;42923;53.220;6.528;2023-02-15T01:28:11;122.55;;;52.75;;
52964;SDS011;42923;53.220;6.528;2023-02-15T01:30:38;96.85;;;48.92;;
52964;SDS011;42923;53.220;6.528;2023-02-15T01:33:03;115.40;;;50.45;;
52964;SDS011;42923;53.220;6.528;2023-02-15T01:35:30;100.03;;;47.47;;
52964;SDS011;42923;53.220;6.528;2023-02-15T01:37:55;93.88;;;48.00;;
52964;SDS011;42923;53.220;6.528;2023-02-15T01:40:22;96.40;;;46.28;;
52964;SDS011;42923;53.220;6.528;2023-02-15T01:42:50;97.00;;;46.95;;
52964;SDS011;42923;53.220;6.528;2023-02-15T01:45:22;109.32;;;47.28;;
52964;SDS011;42923;53.220;6.528;2023-02-15T01:48:31;112.53;;;49.78;;
52964;SDS011;42923;53.220;6.528;2023-02-15T01:50:47;109.47;;;51.65;;
52964;SDS011;42923;53.220;6.528;2023-02-15T01:53:33;105.13;;;49.00;;
52964;SDS011;42923;53.220;6.528;2023-02-15T01:56:10;105.70;;;49.00;;
52964;SDS011;42923;53.220;6.528;2023-02-15T01:58:40;121.70;;;47.83;;
52964;SDS011;42923;53.220;6.528;2023-02-15T02:01:08;119.80;;;49.47;;
52964;SDS011;42923;53.220;6.528;2023-02-15T02:06:12;117.63;;;49.17;;
52964;SDS011;42923;53.220;6.528;2023-02-15T02:08:39;93.35;;;46.28;;
52964;SDS011;42923;53.220;6.528;2023-02-15T02:11:09;89.65;;;40.42;;
52964;SDS011;42923;53.220;6.528;2023-02-15T02:13:37;77.63;;;36.78;;
52964;SDS011;42923;53.220;6.528;2023-02-15T02:16:07;72.13;;;36.58;;
52964;SDS011;42923;53.220;6.528;2023-02-15T02:24:23;64.00;;;35.70;;
52964;SDS011;42923;53.220;6.528;2023-02-15T02:27:11;65.03;;;35.83;;
52964;SDS011;42923;53.220;6.528;2023-02-15T02:38:05;72.03;;;33.30;;
52964;SDS011;42923;53.220;6.528;2023-02-15T02:43:10;72.03;;;35.13;;
52964;SDS011;42923;53.220;6.528;2023-02-15T02:46:30;98.85;;;34.80;;
52964;SDS011;42923;53.220;6.528;2023-02-15T02:48:38;304.73;;;45.38;;
52964;SDS011;42923;53.220;6.528;2023-02-15T02:51:04;103.53;;;39.00;;
52964;SDS011;42923;53.220;6.528;2023-02-15T02:53:30;86.13;;;37.70;;
52964;SDS011;42923;53.220;6.528;2023-02-15T02:55:59;165.43;;;42.53;;
52964;SDS011;42923;53.220;6.528;2023-02-15T02:58:40;311.83;;;54.75;;
52964;SDS011;42923;53.220;6.528;2023-02-15T03:01:17;185.10;;;43.90;;
52964;SDS011;42923;53.220;6.528;2023-02-15T03:03:49;160.80;;;42.42;;
52964;SDS011;42923;53.220;6.528;2023-02-15T03:06:29;129.38;;;39.85;;
52964;SDS011;42923;53.220;6.528;2023-02-15T03:09:23;88.22;;;34.80;;
52964;SDS011;42923;53.220;6.528;2023-02-15T03:12:07;148.98;;;38.13;;
52964;SDS011;42923;53.220;6.528;2023-02-15T03:14:56;73.72;;;34.40;;
52964;SDS011;42923;53.220;6.528;2023-02-15T03:17:31;149.63;;;39.50;;
52964;SDS011;42923;53.220;6.528;2023-02-15T03:20:01;62.03;;;35.10;;
52964;SDS011;42923;53.220;6.528;2023-02-15T03:22:36;74.00;;;35.92;;
52964;SDS011;42923;53.220;6.528;2023-02-15T03:25:11;64.22;;;33.72;;
52964;SDS011;42923;53.220;6.528;2023-02-15T03:27:43;64.63;;;34.33;;
52964;SDS011;42923;53.220;6.528;2023-02-15T03:30:12;52.72;;;31.50;;
52964;SDS011;42923;53.220;6.528;2023-02-15T03:32:40;79.07;;;37.97;;
52964;SDS011;42923;53.220;6.528;2023-02-15T03:35:08;71.88;;;37.20;;
52964;SDS011;42923;53.220;6.528;2023-02-15T03:45:47;55.75;;;34.17;;
52964;SDS011;42923;53.220;6.528;2023-02-15T03:48:26;63.25;;;35.45;;
52964;SDS011;42923;53.220;6.528;2023-02-15T03:50:56;55.47;;;34.20;;
52964;SDS011;42923;53.220;6.528;2023-02-15T03:53:43;60.78;;;36.03;;
52964;SDS011;42923;53.220;6.528;2023-02-15T03:56:12;74.65;;;40.75;;
52964;SDS011;42923;53.220;6.528;2023-02-15T03:58:37;66.95;;;37.30;;
52964;SDS011;42923;53.220;6.528;2023-02-15T04:01:26;65.15;;;38.28;;
52964;SDS011;42923;53.220;6.528;2023-02-15T04:04:18;63.10;;;36.67;;
52964;SDS011;42923;53.220;6.528;2023-02-15T04:06:46;59.70;;;34.63;;
52964;SDS011;42923;53.220;6.528;2023-02-15T04:09:13;61.53;;;36.45;;
52964;SDS011;42923;53.220;6.528;2023-02-15T04:11:58;67.27;;;37.73;;
52964;SDS011;42923;53.220;6.528;2023-02-15T04:14:24;76.45;;;36.90;;
52964;SDS011;42923;53.220;6.528;2023-02-15T04:17:08;76.88;;;38.17;;
52964;SDS011;42923;53.220;6.528;2023-02-15T04:19:34;74.15;;;40.10;;
52964;SDS011;42923;53.220;6.528;2023-02-15T04:22:19;80.07;;;37.67;;
52964;SDS011;42923;53.220;6.528;2023-02-15T04:25:03;75.10;;;40.00;;
52964;SDS011;42923;53.220;6.528;2023-02-15T04:27:36;88.93;;;39.33;;
52964;SDS011;42923;53.220;6.528;2023-02-15T04:30:03;76.80;;;40.08;;
52964;SDS011;42923;53.220;6.528;2023-02-15T04:32:29;76.18;;;40.42;;
52964;SDS011;42923;53.220;6.528;2023-02-15T04:34:55;94.18;;;44.58;;
52964;SDS011;42923;53.220;6.528;2023-02-15T04:37:20;98.55;;;42.88;;
52964;SDS011;42923;53.220;6.528;2023-02-15T04:39:46;97.05;;;43.88;;
52964;SDS011;42923;53.220;6.528;2023-02-15T04:42:12;79.18;;;39.83;;
52964;SDS011;42923;53.220;6.528;2023-02-15T04:44:37;84.03;;;44.38;;
52964;SDS011;42923;53.220;6.528;2023-02-15T04:47:03;79.72;;;43.90;;
52964;SDS011;42923;53.220;6.528;2023-02-15T04:49:29;82.18;;;42.95;;
52964;SDS011;42923;53.220;6.528;2023-02-15T04:51:55;96.50;;;46.33;;
52964;SDS011;42923;53.220;6.528;2023-02-15T04:54:20;99.72;;;45.05;;
52964;SDS011;42923;53.220;6.528;2023-02-15T04:56:46;103.13;;;48.80;;
52964;SDS011;42923;53.220;6.528;2023-02-15T04:59:12;137.18;;;50.92;;
52964;SDS011;42923;53.220;6.528;2023-02-15T05:01:38;110.40;;;48.67;;
52964;SDS011;42923;53.220;6.528;2023-02-15T05:04:04;115.63;;;49.78;;
52964;SDS011;42923;53.220;6.528;2023-02-15T05:06:30;106.38;;;46.53;;
52964;SDS011;42923;53.220;6.528;2023-02-15T05:08:55;101.28;;;47.13;;
52964;SDS011;42923;53.220;6.528;2023-02-15T05:11:23;110.10;;;45.38;;
52964;SDS011;42923;53.220;6.528;2023-02-15T05:13:50;98.43;;;45.45;;
52964;SDS011;42923;53.220;6.528;2023-02-15T05:16:15;105.88;;;44.92;;
52964;SDS011;42923;53.220;6.528;2023-02-15T05:18:41;106.88;;;48.38;;
52964;SDS011;42923;53.220;6.528;2023-02-15T05:21:07;119.63;;;51.47;;
52964;SDS011;42923;53.220;6.528;2023-02-15T05:23:33;138.13;;;52.65;;
52964;SDS011;42923;53.220;6.528;2023-02-15T05:25:59;145.13;;;54.72;;
52964;SDS011;42923;53.220;6.528;2023-02-15T05:28:42;135.43;;;54.75;;
52964;SDS011;42923;53.220;6.528;2023-02-15T05:31:12;137.15;;;54.80;;
52964;SDS011;42923;53.220;6.528;2023-02-15T05:33:40;140.40;;;56.58;;
52964;SDS011;42923;53.220;6.528;2023-02-15T05:36:06;177.02;;;56.45;;
52964;SDS011;42923;53.220;6.528;2023-02-15T05:38:32;139.65;;;52.85;;
52964;SDS011;42923;53.220;6.528;2023-02-15T05:40:58;161.75;;;57.22;;
52964;SDS011;42923;53.220;6.528;2023-02-15T05:43:24;170.75;;;55.13;;
52964;SDS011;42923;53.220;6.528;2023-02-15T05:45:51;153.35;;;56.05;;
52964;SDS011;42923;53.220;6.528;2023-02-15T05:48:19;173.85;;;60.20;;
52964;SDS011;42923;53.220;6.528;2023-02-15T05:50:46;159.68;;;61.10;;
52964;SDS011;42923;53.220;6.528;2023-02-15T05:53:21;179.00;;;62.42;;
52964;SDS011;42923;53.220;6.528;2023-02-15T05:55:47;189.50;;;62.88;;
52964;SDS011;42923;53.220;6.528;2023-02-15T05:58:12;178.30;;;60.17;;
52964;SDS011;42923;53.220;6.528;2023-02-15T06:00:38;168.80;;;58.42;;
52964;SDS011;42923;53.220;6.528;2023-02-15T06:03:04;164.30;;;59.00;;
52964;SDS011;42923;53.220;6.528;2023-02-15T06:05:29;175.63;;;62.35;;
52964;SDS011;42923;53.220;6.528;2023-02-15T06:07:55;190.38;;;63.75;;
52964;SDS011;42923;53.220;6.528;2023-02-15T06:10:21;206.90;;;69.25;;
52964;SDS011;42923;53.220;6.528;2023-02-15T06:12:47;213.27;;;70.63;;
52964;SDS011;42923;53.220;6.528;2023-02-15T06:15:12;205.25;;;70.07;;
52964;SDS011;42923;53.220;6.528;2023-02-15T06:17:40;205.13;;;71.43;;
52964;SDS011;42923;53.220;6.528;2023-02-15T06:20:07;200.43;;;73.45;;
52964;SDS011;42923;53.220;6.528;2023-02-15T06:22:33;235.35;;;77.95;;
52964;SDS011;42923;53.220;6.528;2023-02-15T06:24:59;265.70;;;81.40;;
52964;SDS011;42923;53.220;6.528;2023-02-15T06:27:25;235.65;;;76.93;;
52964;SDS011;42923;53.220;6.528;2023-02-15T06:29:51;233.20;;;77.32;;
52964;SDS011;42923;53.220;6.528;2023-02-15T06:32:16;216.65;;;76.82;;
52964;SDS011;42923;53.220;6.528;2023-02-15T06:34:42;196.88;;;72.25;;
52964;SDS011;42923;53.220;6.528;2023-02-15T06:37:08;211.70;;;75.93;;
52964;SDS011;42923;53.220;6.528;2023-02-15T06:39:34;203.75;;;74.72;;
52964;SDS011;42923;53.220;6.528;2023-02-15T06:42:00;198.15;;;71.93;;
52964;SDS011;42923;53.220;6.528;2023-02-15T06:44:25;229.07;;;75.50;;
52964;SDS011;42923;53.220;6.528;2023-02-15T06:46:51;191.32;;;72.82;;
52964;SDS011;42923;53.220;6.528;2023-02-15T06:49:17;156.80;;;63.28;;
52964;SDS011;42923;53.220;6.528;2023-02-15T06:51:42;160.70;;;66.07;;
52964;SDS011;42923;53.220;6.528;2023-02-15T06:54:08;162.70;;;64.25;;
52964;SDS011;42923;53.220;6.528;2023-02-15T06:56:34;152.00;;;61.97;;
52964;SDS011;42923;53.220;6.528;2023-02-15T06:59:00;128.80;;;58.08;;
52964;SDS011;42923;53.220;6.528;2023-02-15T07:01:26;144.18;;;60.78;;
52964;SDS011;42923;53.220;6.528;2023-02-15T07:03:51;140.95;;;58.42;;
52964;SDS011;42923;53.220;6.528;2023-02-15T07:06:17;127.97;;;57.00;;
52964;SDS011;42923;53.220;6.528;2023-02-15T07:08:43;145.18;;;61.22;;
52964;SDS011;42923;53.220;6.528;2023-02-15T07:11:08;134.20;;;58.30;;
52964;SDS011;42923;53.220;6.528;2023-02-15T07:13:53;122.65;;;51.42;;
52964;SDS011;42923;53.220;6.528;2023-02-15T07:16:19;129.90;;;54.55;;
52964;SDS011;42923;53.220;6.528;2023-02-15T07:18:45;106.60;;;50.10;;
52964;SDS011;42923;53.220;6.528;2023-02-15T07:21:10;109.90;;;49.00;;
52964;SDS011;42923;53.220;6.528;2023-02-15T07:23:36;103.68;;;49.33;;
52964;SDS011;42923;53.220;6.528;2023-02-15T07:26:03;119.38;;;50.47;;
52964;SDS011;42923;53.220;6.528;2023-02-15T07:28:30;99.20;;;46.65;;
52964;SDS011;42923;53.220;6.528;2023-02-15T07:30:56;102.47;;;47.38;;
52964;SDS011;42923;53.220;6.528;2023-02-15T07:33:22;93.60;;;44.83;;
52964;SDS011;42923;53.220;6.528;2023-02-15T07:35:52;89.68;;;43.90;;
52964;SDS011;42923;53.220;6.528;2023-02-15T07:38:19;75.47;;;42.15;;
52964;SDS011;42923;53.220;6.528;2023-02-15T07:40:46;87.65;;;44.35;;
52964;SDS011;42923;53.220;6.528;2023-02-15T07:43:12;82.13;;;42.10;;
52964;SDS011;42923;53.220;6.528;2023-02-15T07:45:38;85.07;;;43.65;;
52964;SDS011;42923;53.220;6.528;2023-02-15T07:48:05;75.53;;;42.97;;
52964;SDS011;42923;53.220;6.528;2023-02-15T07:50:31;79.72;;;41.33;;
52964;SDS011;42923;53.220;6.528;2023-02-15T07:52:57;76.35;;;40.67;;
52964;SDS011;42923;53.220;6.528;2023-02-15T07:55:23;77.38;;;40.92;;
52964;SDS011;42923;53.220;6.528;2023-02-15T07:57:50;85.68;;;42.40;;
52964;SDS011;42923;53.220;6.528;2023-02-15T08:00:17;69.20;;;39.83;;
52964;SDS011;42923;53.220;6.528;2023-02-15T08:02:48;67.28;;;39.10;;
52964;SDS011;42923;53.220;6.528;2023-02-15T08:05:42;66.65;;;39.47;;
52964;SDS011;42923;53.220;6.528;2023-02-15T08:08:09;74.78;;;41.30;;
52964;SDS011;42923;53.220;6.528;2023-02-15T08:11:37;71.37;;;40.00;;
52964;SDS011;42923;53.220;6.528;2023-02-15T08:14:11;71.63;;;37.47;;
52964;SDS011;42923;53.220;6.528;2023-02-15T08:16:58;57.38;;;37.60;;
52964;SDS011;42923;53.220;6.528;2023-02-15T08:19:28;60.28;;;36.17;;
52964;SDS011;42923;53.220;6.528;2023-02-15T08:21:56;54.97;;;34.58;;
52964;SDS011;42923;53.220;6.528;2023-02-15T08:24:27;50.40;;;32.67;;
52964;SDS011;42923;53.220;6.528;2023-02-15T08:26:55;62.53;;;35.33;;
52964;SDS011;42923;53.220;6.528;2023-02-15T08:29:25;54.70;;;34.55;;
52964;SDS011;42923;53.220;6.528;2023-02-15T08:31:53;55.50;;;34.40;;
52964;SDS011;42923;53.220;6.528;2023-02-15T08:34:24;51.65;;;30.48;;
52964;SDS011;42923;53.220;6.528;2023-02-15T08:36:50;49.78;;;32.17;;
52964;SDS011;42923;53.220;6.528;2023-02-15T08:39:16;52.83;;;31.15;;
52964;SDS011;42923;53.220;6.528;2023-02-15T08:41:42;49.92;;;31.45;;
52964;SDS011;42923;53.220;6.528;2023-02-15T08:44:09;50.95;;;30.67;;
52964;SDS011;42923;53.220;6.528;2023-02-15T08:46:37;48.80;;;32.47;;
52964;SDS011;42923;53.220;6.528;2023-02-15T08:49:04;49.58;;;30.45;;
52964;SDS011;42923;53.220;6.528;2023-02-15T08:51:31;48.72;;;31.50;;
52964;SDS011;42923;53.220;6.528;2023-02-15T08:54:00;42.08;;;29.38;;
52964;SDS011;42923;53.220;6.528;2023-02-15T08:56:32;45.00;;;30.60;;
52964;SDS011;42923;53.220;6.528;2023-02-15T08:59:00;46.45;;;30.05;;
52964;SDS011;42923;53.220;6.528;2023-02-15T09:01:29;41.22;;;28.15;;
52964;SDS011;42923;53.220;6.528;2023-02-15T09:03:58;39.20;;;26.63;;
52964;SDS011;42923;53.220;6.528;2023-02-15T09:06:25;37.22;;;27.77;;
52964;SDS011;42923;53.220;6.528;2023-02-15T09:08:52;44.90;;;27.52;;
52964;SDS011;42923;53.220;6.528;2023-02-15T09:11:28;38.00;;;27.08;;
52964;SDS011;42923;53.220;6.528;2023-02-15T09:13:57;35.92;;;26.38;;
52964;SDS011;42923;53.220;6.528;2023-02-15T09:16:25;37.72;;;26.38;;
52964;SDS011;42923;53.220;6.528;2023-02-15T09:18:53;40.65;;;28.95;;
52964;SDS011;42923;53.220;6.528;2023-02-15T09:21:20;38.17;;;26.40;;
52964;SDS011;42923;53.220;6.528;2023-02-15T09:23:48;44.70;;;29.35;;
52964;SDS011;42923;53.220;6.528;2023-02-15T09:26:17;37.03;;;26.67;;
52964;SDS011;42923;53.220;6.528;2023-02-15T09:28:44;36.97;;;25.67;;
52964;SDS011;42923;53.220;6.528;2023-02-15T09:31:17;37.90;;;25.50;;
52964;SDS011;42923;53.220;6.528;2023-02-15T09:33:45;40.60;;;26.67;;
52964;SDS011;42923;53.220;6.528;2023-02-15T09:36:23;40.55;;;28.25;;
52964;SDS011;42923;53.220;6.528;2023-02-15T09:39:13;30.98;;;22.88;;
52964;SDS011;42923;53.220;6.528;2023-02-15T10:05:53;32.50;;;24.33;;
52964;SDS011;42923;53.220;6.528;2023-02-15T10:28:20;31.77;;;24.88;;
52964;SDS011;42923;53.220;6.528;2023-02-15T10:30:51;33.50;;;23.70;;
52964;SDS011;42923;53.220;6.528;2023-02-15T10:33:25;37.85;;;24.42;;
52964;SDS011;42923;53.220;6.528;2023-02-15T10:43:42;30.55;;;23.25;;
52964;SDS011;42923;53.220;6.528;2023-02-15T10:57:53;32.70;;;23.55;;
52964;SDS011;42923;53.220;6.528;2023-02-15T11:00:31;33.30;;;24.55;;
52964;SDS011;42923;53.220;6.528;2023-02-15T11:05:42;32.72;;;24.17;;
52964;SDS011;42923;53.220;6.528;2023-02-15T11:08:19;35.58;;;24.48;;
52964;SDS011;42923;53.220;6.528;2023-02-15T11:10:49;30.65;;;24.92;;
52964;SDS011;42923;53.220;6.528;2023-02-15T11:13:27;32.70;;;24.15;;
52964;SDS011;42923;53.220;6.528;2023-02-15T11:16:06;34.17;;;26.02;;
52964;SDS011;42923;53.220;6.528;2023-02-15T11:18:48;40.20;;;26.83;;
52964;SDS011;42923;53.220;6.528;2023-02-15T11:21:26;30.33;;;23.33;;
52964;SDS011;42923;53.220;6.528;2023-02-15T11:23:57;34.42;;;25.60;;
52964;SDS011;42923;53.220;6.528;2023-02-15T11:26:36;32.85;;;25.55;;
52964;SDS011;42923;53.220;6.528;2023-02-15T11:29:10;33.30;;;24.73;;
52964;SDS011;42923;53.220;6.528;2023-02-15T11:31:47;35.70;;;25.92;;
52964;SDS011;42923;53.220;6.528;2023-02-15T11:34:29;35.70;;;25.85;;
52964;SDS011;42923;53.220;6.528;2023-02-15T11:37:04;34.40;;;25.58;;
52964;SDS011;42923;53.220;6.528;2023-02-15T11:39:33;34.65;;;25.33;;
52964;SDS011;42923;53.220;6.528;2023-02-15T11:42:01;32.55;;;24.25;;
52964;SDS011;42923;53.220;6.528;2023-02-15T11:44:42;37.80;;;24.23;;
52964;SDS011;42923;53.220;6.528;2023-02-15T11:47:19;36.58;;;23.77;;
52964;SDS011;42923;53.220;6.528;2023-02-15T11:49:44;32.15;;;23.58;;
52964;SDS011;42923;53.220;6.528;2023-02-15T11:52:12;34.45;;;25.65;;
52964;SDS011;42923;53.220;6.528;2023-02-15T11:54:43;33.65;;;24.30;;
52964;SDS011;42923;53.220;6.528;2023-02-15T12:00:01;30.15;;;21.38;;
52964;SDS011;42923;53.220;6.528;2023-02-15T12:02:56;37.90;;;22.90;;
52964;SDS011;42923;53.220;6.528;2023-02-15T12:05:23;32.63;;;24.15;;
52964;SDS011;42923;53.220;6.528;2023-02-15T12:11:02;32.00;;;23.15;;
52964;SDS011;42923;53.220;6.528;2023-02-15T12:13:44;32.58;;;22.10;;
52964;SDS011;42923;53.220;6.528;2023-02-15T12:16:23;31.08;;;22.10;;
52964;SDS011;42923;53.220;6.528;2023-02-15T12:18:49;31.75;;;22.25;;
52964;SDS011;42923;53.220;6.528;2023-02-15T12:21:25;40.78;;;21.27;;
52964;SDS011;42923;53.220;6.528;2023-02-15T12:23:57;31.85;;;22.27;;
52964;SDS011;42923;53.220;6.528;2023-02-15T12:26:29;33.08;;;22.45;;
52964;SDS011;42923;53.220;6.528;2023-02-15T12:29:01;34.58;;;21.10;;
52964;SDS011;42923;53.220;6.528;2023-02-15T12:31:41;32.75;;;22.52;;
52964;SDS011;42923;53.220;6.528;2023-02-15T12:34:25;29.80;;;21.45;;
52964;SDS011;42923;53.220;6.528;2023-02-15T12:36:57;30.13;;;21.17;;
52964;SDS011;42923;53.220;6.528;2023-02-15T12:39:28;29.63;;;22.75;;
52964;SDS011;42923;53.220;6.528;2023-02-15T12:44:22;33.03;;;23.58;;
52964;SDS011;42923;53.220;6.528;2023-02-15T12:46:58;33.05;;;23.75;;
52964;SDS011;42923;53.220;6.528;2023-02-15T12:49:26;37.87;;;24.07;;
52964;SDS011;42923;53.220;6.528;2023-02-15T12:51:55;36.92;;;23.98;;
52964;SDS011;42923;53.220;6.528;2023-02-15T12:57:20;38.25;;;25.08;;
52964;SDS011;42923;53.220;6.528;2023-02-15T13:02:19;34.60;;;25.77;;
52964;SDS011;42923;53.220;6.528;2023-02-15T13:07:45;37.90;;;25.88;;
52964;SDS011;42923;53.220;6.528;2023-02-15T13:10:33;39.63;;;27.40;;
52964;SDS011;42923;53.220;6.528;2023-02-15T13:13:02;37.85;;;27.52;;
52964;SDS011;42923;53.220;6.528;2023-02-15T13:15:44;43.60;;;29.02;;
52964;SDS011;42923;53.220;6.528;2023-02-15T13:18:17;38.60;;;25.85;;
52964;SDS011;42923;53.220;6.528;2023-02-15T13:20:52;42.72;;;26.85;;
52964;SDS011;42923;53.220;6.528;2023-02-15T13:23:24;38.72;;;26.73;;
52964;SDS011;42923;53.220;6.528;2023-02-15T13:25:52;35.42;;;27.05;;
52964;SDS011;42923;53.220;6.528;2023-02-15T13:28:25;40.47;;;25.70;;
52964;SDS011;42923;53.220;6.528;2023-02-15T13:31:13;35.50;;;26.63;;
52964;SDS011;42923;53.220;6.528;2023-02-15T13:34:25;37.65;;;26.42;;
52964;SDS011;42923;53.220;6.528;2023-02-15T13:36:45;40.05;;;27.05;;
52964;SDS011;42923;53.220;6.528;2023-02-15T13:39:50;40.65;;;25.23;;
52964;SDS011;42923;53.220;6.528;2023-02-15T13:56:47;40.72;;;28.77;;
52964;SDS011;42923;53.220;6.528;2023-02-15T14:10:31;34.88;;;24.20;;
52964;SDS011;42923;53.220;6.528;2023-02-15T14:18:20;34.92;;;23.45;;
52964;SDS011;42923;53.220;6.528;2023-02-15T14:29:02;37.00;;;23.80;;
52964;SDS011;42923;53.220;6.528;2023-02-15T14:31:42;34.95;;;23.95;;
52964;SDS011;42923;53.220;6.528;2023-02-15T14:34:24;34.42;;;23.08;;
52964;SDS011;42923;53.220;6.528;2023-02-15T14:37:03;34.55;;;23.33;;
52964;SDS011;42923;53.220;6.528;2023-02-15T14:39:31;34.80;;;21.65;;
52964;SDS011;42923;53.220;6.528;2023-02-15T14:42:35;33.45;;;22.88;;
52964;SDS011;42923;53.220;6.528;2023-02-15T14:45:16;33.88;;;21.67;;
52964;SDS011;42923;53.220;6.528;2023-02-15T14:47:48;29.85;;;21.88;;
52964;SDS011;42923;53.220;6.528;2023-02-15T14:53:14;36.13;;;22.00;;
52964;SDS011;42923;53.220;6.528;2023-02-15T14:58:36;32.70;;;22.40;;
52964;SDS011;42923;53.220;6.528;2023-02-15T15:01:06;33.33;;;21.55;;
52964;SDS011;42923;53.220;6.528;2023-02-15T15:03:34;34.65;;;22.05;;
52964;SDS011;42923;53.220;6.528;2023-02-15T15:06:02;35.45;;;22.42;;
52964;SDS011;42923;53.220;6.528;2023-02-15T15:08:39;33.05;;;22.17;;
52964;SDS011;42923;53.220;6.528;2023-02-15T15:13:55;31.98;;;21.08;;
52964;SDS011;42923;53.220;6.528;2023-02-15T15:19:00;32.97;;;21.60;;
52964;SDS011;42923;53.220;6.528;2023-02-15T15:30:46;30.80;;;21.83;;
52964;SDS011;42923;53.220;6.528;2023-02-15T15:46:45;33.47;;;22.17;;
52964;SDS011;42923;53.220;6.528;2023-02-15T15:49:16;37.20;;;25.35;;
52964;SDS011;42923;53.220;6.528;2023-02-15T15:51:45;34.17;;;23.38;;
52964;SDS011;42923;53.220;6.528;2023-02-15T15:54:19;33.33;;;23.60;;
52964;SDS011;42923;53.220;6.528;2023-02-15T15:56:51;40.08;;;23.27;;
52964;SDS011;42923;53.220;6.528;2023-02-15T16:01:52;39.53;;;23.70;;
52964;SDS011;42923;53.220;6.528;2023-02-15T16:04:23;38.70;;;23.27;;
52964;SDS011;42923;53.220;6.528;2023-02-15T16:06:55;37.63;;;24.52;;
52964;SDS011;42923;53.220;6.528;2023-02-15T16:09:23;34.28;;;23.58;;
52964;SDS011;42923;53.220;6.528;2023-02-15T16:11:54;35.50;;;24.92;;
52964;SDS011;42923;53.220;6.528;2023-02-15T16:14:31;36.35;;;23.40;;
52964;SDS011;42923;53.220;6.528;2023-02-15T16:17:01;33.45;;;24.42;;
52964;SDS011;42923;53.220;6.528;2023-02-15T16:19:31;39.63;;;24.63;;
52964;SDS011;42923;53.220;6.528;2023-02-15T16:21:59;37.10;;;25.02;;
52964;SDS011;42923;53.220;6.528;2023-02-15T16:24:45;31.77;;;23.35;;
52964;SDS011;42923;53.220;6.528;2023-02-15T16:29:51;36.55;;;24.20;;
52964;SDS011;42923;53.220;6.528;2023-02-15T16:32:19;36.90;;;24.42;;
52964;SDS011;42923;53.220;6.528;2023-02-15T16:34:50;36.83;;;24.70;;
52964;SDS011;42923;53.220;6.528;2023-02-15T16:37:18;38.63;;;26.50;;
52964;SDS011;42923;53.220;6.528;2023-02-15T16:39:48;41.42;;;27.70;;
52964;SDS011;42923;53.220;6.528;2023-02-15T16:42:15;44.95;;;27.95;;
52964;SDS011;42923;53.220;6.528;2023-02-15T16:44:43;40.88;;;26.02;;
52964;SDS011;42923;53.220;6.528;2023-02-15T16:47:17;40.72;;;28.73;;
52964;SDS011;42923;53.220;6.528;2023-02-15T16:49:48;37.55;;;26.15;;
52964;SDS011;42923;53.220;6.528;2023-02-15T16:52:20;38.92;;;26.75;;
52964;SDS011;42923;53.220;6.528;2023-02-15T16:54:56;43.08;;;27.40;;
52964;SDS011;42923;53.220;6.528;2023-02-15T16:57:28;48.50;;;26.38;;
52964;SDS011;42923;53.220;6.528;2023-02-15T17:00:01;39.72;;;27.05;;
52964;SDS011;42923;53.220;6.528;2023-02-15T17:02:58;39.88;;;27.20;;
52964;SDS011;42923;53.220;6.528;2023-02-15T17:05:42;41.20;;;27.48;;
52964;SDS011;42923;53.220;6.528;2023-02-15T17:08:17;40.17;;;27.08;;
52964;SDS011;42923;53.220;6.528;2023-02-15T17:13:23;43.00;;;26.20;;
52964;SDS011;42923;53.220;6.528;2023-02-15T17:18:26;46.53;;;29.80;;
52964;SDS011;42923;53.220;6.528;2023-02-15T17:20:54;44.08;;;29.75;;
52964;SDS011;42923;53.220;6.528;2023-02-15T17:28:28;46.13;;;28.38;;
52964;SDS011;42923;53.220;6.528;2023-02-15T17:30:56;44.70;;;27.08;;
52964;SDS011;42923;53.220;6.528;2023-02-15T17:33:41;42.83;;;28.17;;
52964;SDS011;42923;53.220;6.528;2023-02-15T17:39:04;44.30;;;28.83;;
52964;SDS011;42923;53.220;6.528;2023-02-15T17:41:28;51.50;;;30.00;;
52964;SDS011;42923;53.220;6.528;2023-02-15T17:43:55;43.63;;;28.95;;
52964;SDS011;42923;53.220;6.528;2023-02-15T17:46:22;53.70;;;33.63;;
52964;SDS011;42923;53.220;6.528;2023-02-15T17:48:53;49.80;;;29.70;;
52964;SDS011;42923;53.220;6.528;2023-02-15T17:51:20;47.40;;;30.00;;
52964;SDS011;42923;53.220;6.528;2023-02-15T17:53:47;45.95;;;29.15;;
52964;SDS011;42923;53.220;6.528;2023-02-15T17:56:35;51.75;;;32.35;;
52964;SDS011;42923;53.220;6.528;2023-02-15T17:59:02;51.53;;;31.95;;
52964;SDS011;42923;53.220;6.528;2023-02-15T18:01:31;52.28;;;31.27;;